首页
METAR-TAF:

METAR-TAF

机场 :

奥朗日, 法国

纬度: 44-08N, 经度: 004-50E, 海拔: 60米

当前天气观测

该预报发布于26分钟前的06:00 UTC
静风
温度 4°C
湿度 93%
气压 1027 hPa
能见度10公里或以上
1500米以下无云,无积雨云

METAR: LFMO 080600Z AUTO 00000KT CAVOK 04/03 Q1027 NOSIG

时间: 08:26 (06:26 UTC)

预报

该预报发布于4小时和26分钟前的02:00 UTC
预报有效从08日的 03点(UTC)到 09日的 03点(UTC)
风速3节,风向多变
能见度10公里或以上
1500米以下无云,无积雨云
成为
从 08日的 10点(UTC)到 08日的 12点(UTC)
风速8节,风向南转西南
短暂存在
从 08日的 13点(UTC)到 08日的 18点(UTC)
风速10节,风向西南,有时为20节阵风
成为
从 08日的 18点(UTC)到 08日的 20点(UTC)
风速3节,风向多变

TAF: LFMO 080200Z 0803/0903 VRB03KT CAVOK BECMG 0810/0812 21008KT TEMPO 0813/0818 22010G20KT BECMG 0818/0820 VRB03KT

超过4000个机场的气象观测和天气预报(METAR&TAF报告)。

可查询的气象台以黄色和红色小点在地图上表示。

将鼠标移到小点上方,可查看气象台名称。

然后点击查看天气观测和预报。

如需切换地图:点击带黑十字的绿色按钮放大地图;点击带横线的绿色按钮缩小地图;或者点击绿色箭头查看邻近地区的地图。


METAR-TAF: